Time;durP1;ratioP1;P1;durP2;ratioP2;P2;SDS_P1;SDS_P2;PMS_P1;PMS_P2;Temp;Humidity;BMP_temperature;BMP_pressure;BME280_temperature;BME280_humidity;BME280_pressure;Samples;Min_cycle;Max_cycle;Signal;HPM_P1;HPM_P2
2022/09/23 00:01:34;;;;;;;7.00;4.20;;;;;;;13.27;64.34;98988.05;25164;1318;3052109;-75
2022/09/23 00:04:04;;;;;;;8.40;5.00;;;;;;;13.02;64.70;98990.89;25078;1318;3026351;-73
2022/09/23 00:06:33;;;;;;;14.20;6.00;;;;;;;12.69;65.90;98988.84;25098;1318;3026170;-74
2022/09/23 00:09:02;;;;;;;13.20;5.30;;;;;;;12.45;66.88;98990.29;25062;1318;3055114;-74
2022/09/23 00:11:32;;;;;;;15.30;6.10;;;;;;;12.23;67.69;98990.39;25087;1318;3026856;-74
2022/09/23 00:14:01;;;;;;;9.80;5.30;;;;;;;12.09;67.97;98987.19;25090;1318;3026455;-75
2022/09/23 00:16:32;;;;;;;13.60;5.70;;;;;;;11.97;68.33;98991.59;25133;1318;3027841;-75
2022/09/23 00:19:02;;;;;;;16.70;6.40;;;;;;;11.92;68.36;98991.20;25106;1318;3026944;-72
2022/09/23 00:21:32;;;;;;;10.00;4.90;;;;;;;11.88;68.49;98987.27;25083;1318;3026694;-76
2022/09/23 00:24:01;;;;;;;9.60;4.50;;;;;;;11.87;68.40;98989.51;25162;1318;3026710;-75
2022/09/23 00:26:30;;;;;;;11.90;5.90;;;;;;;11.85;68.49;98989.84;25118;1317;3052523;-75
2022/09/23 00:28:59;;;;;;;9.70;4.90;;;;;;;11.77;68.79;98986.69;25144;1318;3028813;-77
2022/09/23 00:31:28;;;;;;;11.40;4.70;;;;;;;11.69;69.33;98986.38;25070;1318;3048289;-75
2022/09/23 00:33:58;;;;;;;11.40;5.50;;;;;;;11.64;69.39;98988.00;25101;1318;3026466;-75
2022/09/23 00:36:28;;;;;;;11.60;5.60;;;;;;;11.61;69.73;98982.11;25058;1318;3070952;-74
2022/09/23 00:38:57;;;;;;;7.20;3.50;;;;;;;11.60;69.90;98971.23;25120;1318;3026444;-75
2022/09/23 00:41:28;;;;;;;10.20;5.10;;;;;;;12.15;68.72;98967.59;25096;1318;3054163;-72
2022/09/23 00:43:58;;;;;;;12.00;5.40;;;;;;;12.47;67.27;98965.54;25171;1318;3027107;-76
2022/09/23 00:46:31;;;;;;;12.30;5.60;;;;;;;12.54;67.04;98958.85;25110;1318;3026649;-77
2022/09/23 00:49:05;;;;;;;15.10;6.50;;;;;;;12.42;67.23;98959.31;25071;1318;3028434;-76
2022/09/23 00:51:37;;;;;;;11.00;6.00;;;;;;;12.20;67.85;98962.84;25096;1318;3052032;-73
2022/09/23 00:54:06;;;;;;;15.50;6.30;;;;;;;12.07;68.64;98961.73;25121;1318;3026797;-74
2022/09/23 00:56:36;;;;;;;14.80;6.10;;;;;;;11.95;69.07;98960.81;25056;1319;3026887;-73
2022/09/23 00:59:06;;;;;;;12.00;5.90;;;;;;;11.88;69.27;98964.31;25102;1318;3052351;-74
2022/09/23 01:01:36;;;;;;;10.10;5.60;;;;;;;11.87;69.51;98962.80;25078;1318;3026936;-72
2022/09/23 01:04:06;;;;;;;13.50;5.60;;;;;;;11.88;69.50;98964.31;25096;1318;3026088;-75
2022/09/23 01:06:35;;;;;;;10.20;5.40;;;;;;;11.88;69.76;98963.27;25077;1318;3026715;-73
2022/09/23 01:09:04;;;;;;;14.60;6.30;;;;;;;11.76;70.31;98964.48;25108;1318;3026938;-72
2022/09/23 01:12:07;;;;;;;9.90;4.40;;;;;;;11.68;71.10;98961.07;25024;1318;3051808;-74
2022/09/23 01:14:44;;;;;;;11.30;5.30;;;;;;;12.35;68.98;98952.58;25091;1318;3055492;-73
2022/09/23 01:17:22;;;;;;;10.00;5.30;;;;;;;12.74;67.45;98953.84;25073;1318;3051911;-73
2022/09/23 01:20:02;;;;;;;11.00;5.20;;;;;;;12.55;67.93;98947.92;25107;1318;3068900;-75
2022/09/23 01:22:46;;;;;;;12.80;5.90;;;;;;;12.26;69.09;98949.79;25117;1318;3051106;-73
2022/09/23 01:25:17;;;;;;;9.50;5.70;;;;;;;12.12;69.60;98953.57;25096;1318;3051975;-75
2022/09/23 01:28:09;;;;;;;9.90;5.90;;;;;;;11.80;70.95;98954.38;25030;1318;3026380;-74
2022/09/23 01:30:50;;;;;;;10.20;5.90;;;;;;;11.59;72.11;98952.60;25125;1318;3059030;-74
2022/09/23 01:33:23;;;;;;;14.10;6.10;;;;;;;11.38;73.01;98949.86;25050;1318;3052316;-72
2022/09/23 01:36:13;;;;;;;10.10;5.70;;;;;;;11.26;73.61;98952.52;25067;1319;3026591;-76
2022/09/23 01:38:48;;;;;;;7.80;4.20;;;;;;;11.16;74.32;98952.32;25095;1318;3051490;-71
2022/09/23 01:41:42;;;;;;;7.50;4.10;;;;;;;11.79;72.36;98955.64;25045;1318;3069192;-73
2022/09/23 01:44:35;;;;;;;11.90;5.40;;;;;;;12.16;70.69;98954.73;25042;1318;3048790;-75
2022/09/23 01:47:14;;;;;;;11.00;5.60;;;;;;;12.13;70.44;98958.98;25071;1318;3051590;-75
2022/09/23 01:49:58;;;;;;;10.70;5.90;;;;;;;11.85;71.18;98960.55;25092;1318;3052588;-76
2022/09/23 01:52:35;;;;;;;10.00;5.80;;;;;;;11.68;71.63;98960.48;25111;1318;3057291;-75
2022/09/23 01:55:09;;;;;;;10.70;6.10;;;;;;;11.43;72.63;98960.00;25057;1318;3049083;-76
2022/09/23 01:57:43;;;;;;;13.90;6.10;;;;;;;11.30;73.13;98965.89;25076;1318;3056013;-75
2022/09/23 02:00:13;;;;;;;;;;;;;;;11.14;73.74;98964.03;25143;1318;3051240;-74
2022/09/23 02:02:48;;;;;;;11.10;6.50;;;;;;;11.04;74.11;98966.61;25086;1318;3026816;-74
2022/09/23 02:05:32;;;;;;;8.20;3.90;;;;;;;11.09;73.91;98967.23;25075;1318;3048961;-75
2022/09/23 02:08:05;;;;;;;9.20;4.80;;;;;;;11.67;72.09;98968.80;25092;1318;3056190;-75
2022/09/23 02:10:48;;;;;;;9.80;5.30;;;;;;;12.06;70.25;98963.17;25121;1318;3053010;-76
2022/09/23 02:13:23;;;;;;;10.60;6.10;;;;;;;12.00;70.00;98956.59;25147;1318;3059327;-75
2022/09/23 02:15:54;;;;;;;10.20;5.90;;;;;;;11.85;70.57;98957.91;25046;1318;3052304;-75
2022/09/23 02:18:25;;;;;;;14.20;7.00;;;;;;;11.81;70.82;98954.66;25113;1318;3026729;-75
2022/09/23 02:20:59;;;;;;;15.40;7.80;;;;;;;11.62;71.31;98951.45;25091;1318;3026574;-73
2022/09/23 02:23:35;;;;;;;21.00;9.00;;;;;;;11.48;72.03;98952.14;25012;1318;3026528;-72
2022/09/23 02:26:07;;;;;;;21.50;10.00;;;;;;;11.38;72.56;98959.02;25055;1318;3049654;-73
2022/09/23 02:28:53;;;;;;;18.30;8.90;;;;;;;11.21;73.27;98961.11;25121;1318;3027490;-73
2022/09/23 02:32:03;;;;;;;12.60;5.90;;;;;;;11.14;73.53;98954.57;25091;1318;3052943;-74
2022/09/23 02:34:54;;;;;;;16.50;6.10;;;;;;;11.98;71.05;98956.75;24959;1324;3059407;-73
2022/09/23 02:38:04;;;;;;;18.00;8.50;;;;;;;12.27;69.54;98971.52;25075;1318;3049397;-74
2022/09/23 02:40:37;;;;;;;14.60;8.50;;;;;;;12.11;69.84;98971.98;24961;1324;3051731;-76
2022/09/23 02:43:13;;;;;;;22.30;10.90;;;;;;;11.81;70.85;98967.28;25091;1318;3028134;-75
2022/09/23 02:45:44;;;;;;;25.70;10.50;;;;;;;11.48;72.11;98961.80;25079;1318;3068959;-76
2022/09/23 02:48:17;;;;;;;21.20;10.20;;;;;;;11.28;73.05;98963.77;25097;1318;3026701;-76
2022/09/23 02:50:47;;;;;;;16.80;9.30;;;;;;;11.06;73.80;98958.95;25107;1318;3055334;-75
2022/09/23 02:53:16;;;;;;;19.30;9.20;;;;;;;10.91;74.57;98959.38;25079;1320;3026900;-75
2022/09/23 02:55:45;;;;;;;12.00;6.10;;;;;;;10.84;75.15;98961.20;25047;1318;3026252;-75
2022/09/23 02:58:14;;;;;;;18.30;7.20;;;;;;;11.20;74.43;98947.84;25102;1318;3055378;-76
2022/09/23 03:01:03;;;;;;;18.70;6.60;;;;;;;11.63;72.74;98944.06;25055;1318;3026549;-75
2022/09/23 03:04:08;;;;;;;12.20;7.50;;;;;;;11.57;72.50;98943.94;25046;1318;3051442;-75
2022/09/23 03:06:59;;;;;;;14.90;7.10;;;;;;;11.39;73.06;98944.34;25091;1318;3054672;-75
2022/09/23 03:09:35;;;;;;;11.40;6.70;;;;;;;11.28;73.34;98948.83;25140;1318;3051263;-75
2022/09/23 03:12:15;;;;;;;10.00;6.10;;;;;;;11.04;74.29;98944.21;25137;1318;3059361;-75
2022/09/23 03:14:50;;;;;;;13.70;6.60;;;;;;;10.92;74.74;98944.52;25105;1318;3052804;-76
2022/09/23 03:17:24;;;;;;;8.70;4.60;;;;;;;10.78;75.88;98949.70;25097;1318;3054324;-75
2022/09/23 03:20:00;;;;;;;9.10;5.00;;;;;;;11.38;74.29;98934.96;25117;1317;3052189;-75
2022/09/23 03:22:56;;;;;;;15.00;7.40;;;;;;;11.63;72.88;98930.77;25096;1318;3071796;-75
2022/09/23 03:25:26;;;;;;;16.70;8.60;;;;;;;11.46;73.24;98932.27;25102;1321;3050306;-75
2022/09/23 03:27:56;;;;;;;18.30;8.90;;;;;;;11.33;73.59;98939.73;25141;1318;3028463;-77
2022/09/23 03:30:25;;;;;;;15.60;7.40;;;;;;;11.31;73.41;98946.84;25038;1318;3026430;-73
2022/09/23 03:32:54;;;;;;;16.50;8.50;;;;;;;11.07;74.17;98949.44;25079;1318;3027324;-73
2022/09/23 03:35:23;;;;;;;23.20;11.10;;;;;;;10.88;75.11;98955.14;25087;1318;3051598;-74
2022/09/23 03:37:55;;;;;;;23.60;8.80;;;;;;;10.78;75.94;98959.36;25091;1318;3026479;-74
2022/09/23 03:40:28;;;;;;;18.10;8.70;;;;;;;11.34;74.84;98958.37;25118;1318;3049730;-74
2022/09/23 03:42:57;;;;;;;20.00;9.70;;;;;;;11.77;72.58;98964.09;25163;1318;3026890;-74
2022/09/23 03:45:29;;;;;;;14.20;7.50;;;;;;;11.69;72.48;98965.16;25083;1321;3026894;-75
2022/09/23 03:47:57;;;;;;;16.50;8.00;;;;;;;11.38;73.38;98973.21;25082;1318;3049018;-75
2022/09/23 03:50:27;;;;;;;13.00;7.20;;;;;;;11.08;74.55;98976.51;25137;1318;3027011;-73
2022/09/23 03:52:56;;;;;;;13.30;7.10;;;;;;;10.98;75.04;98986.17;25054;1318;3026780;-72
2022/09/23 03:55:24;;;;;;;10.70;6.20;;;;;;;10.83;75.57;98990.03;25130;1318;3047867;-74
2022/09/23 03:57:54;;;;;;;11.00;6.30;;;;;;;10.75;75.98;98991.85;25113;1318;3028782;-73
2022/09/23 04:00:23;;;;;;;9.20;3.70;;;;;;;10.65;76.88;98995.27;25089;1318;3067657;-74
2022/09/23 04:02:52;;;;;;;9.00;4.80;;;;;;;11.25;75.21;98992.88;25050;1318;3026242;-74
2022/09/23 04:05:21;;;;;;;10.10;5.20;;;;;;;11.75;72.89;98994.26;25164;1318;3053533;-76
2022/09/23 04:07:51;;;;;;;10.80;6.10;;;;;;;11.77;72.30;98993.91;25090;1318;3026665;-76
2022/09/23 04:10:20;;;;;;;10.80;6.00;;;;;;;11.22;73.78;98996.42;25109;1318;3026769;-75
2022/09/23 04:12:50;;;;;;;9.60;5.90;;;;;;;11.04;74.91;98993.11;25034;1318;3026433;-75
2022/09/23 04:15:19;;;;;;;15.30;6.60;;;;;;;10.91;75.27;98986.48;25080;1319;3026446;-76
2022/09/23 04:17:49;;;;;;;11.90;6.30;;;;;;;10.94;75.18;98968.45;25100;1318;3050840;-75
2022/09/23 04:20:18;;;;;;;14.10;6.90;;;;;;;10.72;75.91;98966.09;25054;1318;3026394;-77
2022/09/23 04:22:47;;;;;;;11.80;4.90;;;;;;;10.64;76.76;98968.20;25108;1318;3068514;-76
2022/09/23 04:25:16;;;;;;;11.70;5.50;;;;;;;11.05;75.78;98965.73;25083;1318;3026492;-75
2022/09/23 04:27:46;;;;;;;15.60;7.20;;;;;;;11.40;74.13;98965.36;25133;1318;3054721;-74
2022/09/23 04:30:17;;;;;;;11.70;7.20;;;;;;;11.41;73.50;98964.23;25056;1318;3026701;-77
2022/09/23 04:32:46;;;;;;;14.60;7.50;;;;;;;11.30;73.87;98979.02;25094;1318;3052717;-77
2022/09/23 04:35:15;;;;;;;15.20;6.40;;;;;;;11.17;74.21;98982.05;25113;1318;3026560;-76
2022/09/23 04:37:46;;;;;;;12.90;7.30;;;;;;;10.96;74.94;98984.73;25107;1318;3052280;-76
2022/09/23 04:40:16;;;;;;;16.00;7.20;;;;;;;10.84;75.58;98986.98;25091;1318;3026344;-76
2022/09/23 04:42:44;;;;;;;17.90;9.30;;;;;;;10.72;76.16;98991.28;25126;1318;3026626;-76
2022/09/23 04:45:14;;;;;;;16.10;6.80;;;;;;;10.64;76.97;98981.00;25068;1318;3051553;-75
2022/09/23 04:47:43;;;;;;;14.90;6.90;;;;;;;11.35;74.97;98971.66;25109;1318;3026741;-75
2022/09/23 04:50:12;;;;;;;13.40;7.40;;;;;;;11.87;72.55;98970.73;25159;1318;3026459;-76
2022/09/23 04:52:42;;;;;;;12.00;6.50;;;;;;;11.68;72.74;98959.97;25071;1318;3051181;-76
2022/09/23 04:55:11;;;;;;;12.00;5.50;;;;;;;11.54;72.94;98964.13;25120;1318;3027654;-75
2022/09/23 04:57:41;;;;;;;10.80;5.70;;;;;;;11.32;73.87;98966.28;25103;1318;3026798;-76
2022/09/23 05:00:14;;;;;;;12.80;6.00;;;;;;;11.22;74.29;98960.81;25046;1318;3026513;-76
2022/09/23 05:02:47;;;;;;;10.80;5.70;;;;;;;10.94;75.60;98969.65;25137;1318;3051618;-76
2022/09/23 05:05:22;;;;;;;8.80;5.60;;;;;;;10.78;76.32;98976.19;25121;1318;3050327;-77
2022/09/23 05:07:51;;;;;;;;;;;;;;;10.74;76.88;98980.52;25125;1318;3067775;-75
2022/09/23 05:10:21;;;;;;;7.40;3.70;;;;;;;11.25;75.44;98978.14;25102;1320;3026845;-76
2022/09/23 05:12:50;;;;;;;9.90;4.90;;;;;;;11.47;74.29;98976.08;25097;1318;3028197;-75
2022/09/23 05:15:21;;;;;;;10.40;6.00;;;;;;;11.49;73.72;98980.82;25150;1319;3026309;-76
2022/09/23 05:17:50;;;;;;;10.30;5.90;;;;;;;11.49;73.54;98970.66;25156;1318;3026978;-76
2022/09/23 05:20:19;;;;;;;8.20;5.20;;;;;;;11.45;73.54;98967.83;25208;1319;3055601;-76
2022/09/23 05:22:48;;;;;;;11.40;5.90;;;;;;;11.25;74.33;98968.15;25133;1317;3028415;-75
2022/09/23 05:25:21;;;;;;;7.90;5.20;;;;;;;11.21;74.25;98964.59;25113;1318;3026313;-76
2022/09/23 05:27:55;;;;;;;6.40;3.70;;;;;;;11.21;74.69;98959.14;25149;1318;3050381;-77
2022/09/23 05:30:24;;;;;;;6.70;4.30;;;;;;;11.89;73.18;98953.56;25128;1318;3026529;-77
2022/09/23 05:32:54;;;;;;;7.80;4.70;;;;;;;12.35;70.63;98957.37;25098;1320;3058316;-79
2022/09/23 05:35:23;;;;;;;8.10;4.30;;;;;;;12.32;70.44;98961.63;25115;1319;3026846;-77
2022/09/23 05:37:53;;;;;;;9.00;4.60;;;;;;;12.12;70.80;98970.63;25161;1318;3052300;-77
2022/09/23 05:40:22;;;;;;;6.80;4.50;;;;;;;12.02;71.17;98974.18;25100;1318;3026071;-78
2022/09/23 05:42:51;;;;;;;7.50;5.10;;;;;;;11.82;71.39;98978.99;25156;1318;3051745;-77
2022/09/23 05:45:20;;;;;;;10.00;5.20;;;;;;;11.85;71.58;98979.26;25069;1318;3026455;-78
2022/09/23 05:47:49;;;;;;;14.30;7.30;;;;;;;11.72;72.21;98972.36;25096;1318;3048545;-76
2022/09/23 05:50:18;;;;;;;11.10;7.50;;;;;;;11.77;71.91;98968.79;25065;1321;3026362;-76
2022/09/23 05:52:47;;;;;;;8.80;4.40;;;;;;;11.81;72.32;98966.64;25102;1318;3068427;-78
2022/09/23 05:55:16;;;;;;;11.00;5.40;;;;;;;12.37;70.76;98961.44;25121;1319;3026936;-77
2022/09/23 05:57:45;;;;;;;17.70;6.20;;;;;;;12.76;68.83;98963.14;25100;1318;3051734;-77
2022/09/23 06:00:14;;;;;;;12.30;6.80;;;;;;;12.75;68.31;98967.09;25080;1318;3028024;-78
2022/09/23 06:02:47;;;;;;;10.70;5.40;;;;;;;12.39;69.05;98968.65;25058;1318;3052859;-77
2022/09/23 06:05:16;;;;;;;11.70;5.70;;;;;;;12.24;69.45;98968.84;25113;1319;3027495;-77
2022/09/23 06:07:45;;;;;;;11.40;4.30;;;;;;;12.13;69.73;98971.11;25048;1318;3026555;-75
2022/09/23 06:10:14;;;;;;;6.70;3.90;;;;;;;12.08;70.04;98976.19;25096;1318;3052693;-76
2022/09/23 06:13:09;;;;;;;5.40;3.90;;;;;;;11.96;70.29;98977.05;25105;1318;3051612;-76
2022/09/23 06:15:38;;;;;;;6.30;3.40;;;;;;;11.94;70.81;98980.06;25044;1318;3026608;-77
2022/09/23 06:18:07;;;;;;;5.80;3.70;;;;;;;11.82;71.01;98980.20;25094;1318;3052220;-77
2022/09/23 06:20:38;;;;;;;6.00;2.40;;;;;;;12.03;70.86;98980.45;25088;1318;3027782;-75
2022/09/23 06:23:08;;;;;;;5.50;2.70;;;;;;;12.54;69.10;98986.67;25084;1318;3026718;-75
2022/09/23 06:25:37;;;;;;;4.90;3.10;;;;;;;12.96;67.73;98986.23;24989;1318;3052423;-76
2022/09/23 06:28:10;;;;;;;4.20;2.70;;;;;;;12.80;67.72;98996.77;25125;1318;3027369;-76
2022/09/23 06:30:39;;;;;;;8.10;3.00;;;;;;;12.91;67.28;98992.20;25053;1318;3030422;-75
2022/09/23 06:33:09;;;;;;;6.80;2.70;;;;;;;12.83;67.09;98997.95;25070;1318;3026174;-73
2022/09/23 06:35:37;;;;;;;5.20;2.80;;;;;;;12.73;67.31;98999.80;25102;1318;3026586;-77
2022/09/23 06:38:07;;;;;;;5.60;3.30;;;;;;;12.65;67.86;99003.91;25103;1318;3068952;-77
2022/09/23 06:40:36;;;;;;;4.20;3.00;;;;;;;12.47;68.76;99010.87;25072;1318;3026386;-77
2022/09/23 06:43:07;;;;;;;7.40;3.40;;;;;;;12.50;68.99;99003.84;25088;1318;3028136;-78
2022/09/23 06:45:36;;;;;;;5.90;2.90;;;;;;;12.54;68.82;99000.67;25053;1318;3026360;-78
2022/09/23 06:48:08;;;;;;;4.90;3.10;;;;;;;12.58;69.29;99005.34;24391;1318;3058712;-77
2022/09/23 06:50:38;;;;;;;3.90;2.60;;;;;;;12.71;68.58;99008.23;25133;1318;3054565;-78
2022/09/23 06:53:07;;;;;;;5.10;2.80;;;;;;;12.70;67.65;99013.31;25101;1318;3026659;-75
2022/09/23 06:55:36;;;;;;;3.60;2.40;;;;;;;12.73;67.48;99010.66;25069;1318;3027520;-75
2022/09/23 06:58:06;;;;;;;4.70;2.80;;;;;;;12.77;67.46;99013.55;25114;1318;3054131;-74
2022/09/23 07:00:35;;;;;;;7.20;3.00;;;;;;;12.74;67.78;99014.25;25115;1318;3026844;-76
2022/09/23 07:03:06;;;;;;;6.00;2.70;;;;;;;12.87;67.36;99006.76;25123;1318;3027406;-77
2022/09/23 07:05:37;;;;;;;5.80;2.60;;;;;;;12.88;67.34;99002.14;25084;1321;3027410;-78
2022/09/23 07:08:08;;;;;;;4.10;2.80;;;;;;;12.91;67.14;99003.61;25096;1320;3026548;-77
2022/09/23 07:10:38;;;;;;;6.10;2.80;;;;;;;13.03;67.03;98997.48;25079;1321;3026826;-75
2022/09/23 07:13:32;;;;;;;;;;;;;;;13.09;66.59;99011.07;24998;1319;3068836;-76
2022/09/23 07:16:01;;;;;;;4.60;2.90;;;;;;;13.21;66.32;99005.41;25047;1319;3026540;-75
2022/09/23 07:18:32;;;;;;;5.20;2.90;;;;;;;13.28;66.69;98997.10;25024;1320;3051098;-76
2022/09/23 07:21:08;;;;;;;6.40;3.10;;;;;;;13.30;66.43;98999.20;25004;1320;3026490;-76
2022/09/23 07:23:37;;;;;;;5.00;2.60;;;;;;;13.25;66.47;99002.27;25045;1321;3051334;-75
2022/09/23 07:26:07;;;;;;;4.80;2.90;;;;;;;13.27;66.56;98987.83;25073;1319;3026456;-78
2022/09/23 07:28:37;;;;;;;4.20;2.50;;;;;;;13.36;66.81;98982.59;25058;1321;3069992;-72
2022/09/23 07:31:11;;;;;;;3.70;2.60;;;;;;;13.34;66.69;98973.28;25088;1319;3026200;-71
2022/09/23 07:33:42;;;;;;;4.20;2.40;;;;;;;13.41;66.33;98970.92;25090;1319;3053894;-71
2022/09/23 07:36:13;;;;;;;5.10;2.30;;;;;;;13.42;66.40;98968.95;25116;1320;3026427;-70
2022/09/23 07:38:43;;;;;;;4.90;2.80;;;;;;;13.42;65.19;98966.08;25059;1321;3026810;-70
2022/09/23 07:41:14;;;;;;;3.30;2.20;;;;;;;13.57;64.58;98965.29;25013;1321;3027846;-74
2022/09/23 07:43:44;;;;;;;4.20;2.30;;;;;;;13.61;64.49;98959.84;25029;1320;3026283;-74
2022/09/23 07:46:15;;;;;;;6.30;1.90;;;;;;;13.59;63.77;98969.30;25131;1322;3026518;-76
2022/09/23 07:48:47;;;;;;;;;;;;;;;13.59;63.38;98972.63;25060;1321;3071091;-75
2022/09/23 07:51:18;;;;;;;2.70;1.80;;;;;;;13.70;63.26;98967.34;25007;1321;3026847;-70
2022/09/23 07:53:49;;;;;;;2.20;1.90;;;;;;;13.92;62.79;98972.25;25078;1320;3051464;-70
2022/09/23 07:56:43;;;;;;;5.20;2.00;;;;;;;14.06;61.90;98968.80;25041;1320;3068449;-70
2022/09/23 07:59:17;;;;;;;4.50;1.80;;;;;;;13.89;61.55;98970.05;25106;1320;3026368;-69
2022/09/23 08:01:48;;;;;;;2.50;1.70;;;;;;;14.05;61.07;98973.48;25078;1319;3054433;-74
2022/09/23 08:04:18;;;;;;;3.70;2.10;;;;;;;14.20;60.67;98976.72;25078;1319;3026212;-71
2022/09/23 08:06:56;;;;;;;2.30;1.80;;;;;;;14.43;60.20;98977.34;25048;1321;3026505;-71
2022/09/23 08:09:34;;;;;;;3.50;2.00;;;;;;;14.50;59.69;98978.94;25067;1321;3052105;-72
2022/09/23 08:12:04;;;;;;;3.00;2.10;;;;;;;14.51;58.74;98976.71;25060;1319;3052659;-70
2022/09/23 08:14:33;;;;;;;4.90;1.60;;;;;;;14.47;58.69;98981.81;25049;1319;3029482;-75
2022/09/23 08:17:08;;;;;;;1.80;1.60;;;;;;;14.51;57.82;98978.16;25071;1321;3052189;-74
2022/09/23 08:19:37;;;;;;;3.60;2.10;;;;;;;14.82;57.90;98975.91;25037;1319;3026472;-72
2022/09/23 08:22:06;;;;;;;2.70;2.10;;;;;;;14.82;58.20;98970.20;25017;1319;3055228;-73
2022/09/23 08:24:35;;;;;;;2.60;1.70;;;;;;;14.90;58.16;98971.16;25010;1321;3027787;-71
2022/09/23 08:27:04;;;;;;;3.30;1.40;;;;;;;14.86;57.76;98976.77;25088;1319;3027096;-72
2022/09/23 08:29:35;;;;;;;2.60;1.60;;;;;;;14.85;57.29;98974.58;25024;1321;3055706;-74
2022/09/23 08:32:04;;;;;;;2.80;1.70;;;;;;;14.79;57.50;98976.28;25071;1319;3026844;-75
2022/09/23 08:34:35;;;;;;;2.10;1.70;;;;;;;14.88;57.05;98972.06;25003;1319;3053039;-71
2022/09/23 08:37:09;;;;;;;5.30;1.50;;;;;;;15.17;55.92;98967.77;25052;1321;3026302;-70
2022/09/23 08:39:38;;;;;;;4.10;1.70;;;;;;;15.42;55.67;98966.77;25002;1319;3053824;-74
2022/09/23 08:42:16;;;;;;;5.20;2.10;;;;;;;15.43;55.19;98964.59;25037;1319;3026821;-69
2022/09/23 08:44:46;;;;;;;5.20;2.20;;;;;;;15.34;55.53;98961.31;25043;1319;3051057;-75
2022/09/23 08:47:29;;;;;;;4.20;1.70;;;;;;;15.24;55.73;98965.39;25028;1319;3026060;-76
2022/09/23 08:50:07;;;;;;;2.60;1.60;;;;;;;14.88;55.48;98964.44;25012;1319;3052718;-76
2022/09/23 08:53:04;;;;;;;3.20;1.70;;;;;;;14.99;55.02;98961.00;25071;1319;3056547;-75
2022/09/23 08:55:34;;;;;;;2.10;1.50;;;;;;;15.25;53.85;98958.01;25053;1320;3050491;-75
2022/09/23 08:58:35;;;;;;;2.30;1.20;;;;;;;15.51;52.83;98959.45;25052;1319;3026565;-75
2022/09/23 09:01:19;;;;;;;2.10;1.50;;;;;;;15.51;53.12;98957.17;25047;1319;3052005;-77
2022/09/23 09:03:53;;;;;;;2.00;1.70;;;;;;;15.76;52.74;98951.75;25012;1319;3068905;-74
2022/09/23 09:06:25;;;;;;;;;;;;;;;16.05;52.03;98952.56;25031;1319;3049473;-75
2022/09/23 09:08:59;;;;;;;3.80;1.90;;;;;;;15.86;51.14;98961.48;25028;1320;3026780;-75
2022/09/23 09:11:35;;;;;;;;;;;;;;;15.62;51.32;98955.52;25067;1320;3051965;-76
2022/09/23 09:14:25;;;;;;;2.50;1.80;;;;;;;15.46;52.10;98957.79;25050;1320;3055949;-76
2022/09/23 09:17:37;;;;;;;5.20;2.10;;;;;;;15.36;53.03;98966.03;25042;1320;3049699;-75
2022/09/23 09:20:18;;;;;;;3.40;2.10;;;;;;;15.25;53.79;98965.48;25018;1319;3053415;-75
2022/09/23 09:22:59;;;;;;;6.30;2.30;;;;;;;15.21;54.03;98970.73;25054;1321;3051260;-75
2022/09/23 09:25:31;;;;;;;5.00;2.20;;;;;;;15.26;54.22;98966.77;25021;1321;3069870;-75
2022/09/23 09:28:00;;;;;;;3.00;2.10;;;;;;;15.33;53.78;98963.32;25038;1319;3028179;-76
2022/09/23 09:30:29;;;;;;;3.80;2.40;;;;;;;15.53;53.70;98966.37;25058;1319;3029827;-72
2022/09/23 09:33:02;;;;;;;3.20;2.00;;;;;;;15.92;53.03;98967.95;25046;1321;3066659;-75
2022/09/23 09:35:37;;;;;;;3.10;2.00;;;;;;;16.21;52.16;98968.70;25056;1319;3048592;-72
2022/09/23 09:38:06;;;;;;;3.70;2.20;;;;;;;16.44;51.55;98970.28;25055;1319;3052345;-74
2022/09/23 09:40:35;;;;;;;4.90;2.30;;;;;;;16.50;50.84;98969.45;25063;1321;3028270;-70
2022/09/23 09:43:05;;;;;;;2.70;1.90;;;;;;;16.65;49.99;98964.54;24981;1319;3028182;-72
2022/09/23 09:45:53;;;;;;;6.90;1.90;;;;;;;16.88;49.22;98962.31;25022;1321;3026749;-72
2022/09/23 09:48:40;;;;;;;3.20;2.00;;;;;;;16.58;49.63;98968.79;25022;1319;3055172;-73
2022/09/23 09:51:17;;;;;;;4.20;2.20;;;;;;;16.34;50.48;98964.16;25087;1321;3052632;-72
2022/09/23 09:53:50;;;;;;;3.60;2.40;;;;;;;16.07;50.95;98962.43;25002;1321;3068696;-72
2022/09/23 09:56:45;;;;;;;4.20;2.20;;;;;;;16.09;50.48;98960.59;25026;1319;3051701;-75
2022/09/23 09:59:19;;;;;;;3.60;1.80;;;;;;;16.17;49.30;98960.64;25057;1321;3026557;-76
2022/09/23 10:01:49;;;;;;;1.80;1.50;;;;;;;16.40;49.32;98960.46;25061;1320;3050888;-73
2022/09/23 10:04:32;;;;;;;3.00;1.90;;;;;;;16.29;49.42;98968.91;25059;1319;3029841;-74
2022/09/23 10:07:14;;;;;;;3.40;2.10;;;;;;;16.18;49.29;98957.16;25071;1320;3051370;-72
2022/09/23 10:09:49;;;;;;;3.00;1.80;;;;;;;16.24;49.44;98964.70;25108;1319;3052989;-73
2022/09/23 10:12:20;;;;;;;3.00;1.60;;;;;;;16.29;49.40;98966.05;25038;1319;3051772;-74
2022/09/23 10:14:55;;;;;;;2.80;1.80;;;;;;;16.11;49.72;98966.98;25020;1320;3070677;-75
2022/09/23 10:17:31;;;;;;;5.60;2.20;;;;;;;16.00;50.04;98963.05;25055;1320;3051230;-74
2022/09/23 10:20:05;;;;;;;5.20;1.90;;;;;;;15.97;50.00;98962.79;25074;1319;3052712;-75
2022/09/23 10:22:36;;;;;;;3.50;2.10;;;;;;;16.23;49.66;98959.52;25059;1319;3053552;-75
2022/09/23 10:25:07;;;;;;;3.20;2.00;;;;;;;16.58;48.95;98957.91;25092;1321;3026762;-78
2022/09/23 10:27:37;;;;;;;2.50;1.90;;;;;;;16.59;48.90;98949.49;25066;1320;3026975;-76
2022/09/23 10:30:23;;;;;;;3.20;1.90;;;;;;;16.40;48.99;98950.66;25074;1321;3028304;-76
2022/09/23 10:32:55;;;;;;;4.90;1.90;;;;;;;16.63;48.08;98957.62;25083;1319;3051760;-75
2022/09/23 10:35:25;;;;;;;3.20;1.70;;;;;;;16.71;45.97;98951.52;25089;1319;3026210;-75
2022/09/23 10:37:55;;;;;;;3.40;1.50;;;;;;;16.81;45.48;98954.68;25073;1321;3026893;-76
2022/09/23 10:46:37;;;;;;;3.20;1.70;;;;;;;17.01;44.45;98954.56;25069;1319;3056701;-76
2022/09/23 10:49:29;;;;;;;2.40;1.90;;;;;;;17.03;46.00;98964.30;25064;1319;3053039;-76
2022/09/23 10:52:14;;;;;;;2.90;1.90;;;;;;;16.85;46.71;98966.11;25108;1321;3055366;-75
2022/09/23 10:55:06;;;;;;;2.40;1.70;;;;;;;16.54;46.71;98963.41;25063;1321;3051882;-76
2022/09/23 10:57:45;;;;;;;3.60;2.20;;;;;;;16.45;46.11;98963.19;25049;1321;3071821;-76
2022/09/23 11:00:39;;;;;;;3.00;1.70;;;;;;;16.17;46.08;98960.05;25019;1320;3052055;-75
2022/09/23 11:03:25;;;;;;;2.00;1.40;;;;;;;16.07;45.75;98953.98;25094;1319;3052436;-74
2022/09/23 11:06:17;;;;;;;3.30;1.80;;;;;;;16.19;45.68;98948.95;25031;1319;3054749;-76
2022/09/23 11:08:48;;;;;;;2.60;1.40;;;;;;;16.50;44.94;98949.45;25066;1319;3055921;-75
2022/09/23 11:11:17;;;;;;;6.40;1.60;;;;;;;16.60;44.86;98948.48;25107;1320;3026993;-76
2022/09/23 11:14:12;;;;;;;2.80;1.50;;;;;;;16.80;44.23;98948.02;25053;1321;3026627;-69
2022/09/23 11:17:03;;;;;;;2.50;1.80;;;;;;;16.68;43.93;98945.98;25098;1321;3054368;-72
2022/09/23 11:20:12;;;;;;;4.50;1.60;;;;;;;16.69;44.58;98942.40;24965;1321;3069017;-71
2022/09/23 11:22:48;;;;;;;7.10;1.70;;;;;;;17.02;43.69;98939.11;25070;1321;3051560;-67
2022/09/23 11:25:33;;;;;;;5.20;1.70;;;;;;;17.20;39.33;98937.55;25108;1321;3052655;-67
2022/09/23 11:28:16;;;;;;;10.30;1.70;;;;;;;17.21;38.09;98935.48;24994;1320;3055633;-66
2022/09/23 11:30:57;;;;;;;1.90;1.10;;;;;;;17.50;38.83;98934.17;25057;1321;3056188;-66
2022/09/23 11:33:37;;;;;;;2.70;0.90;;;;;;;17.65;37.12;98943.25;25028;1321;3049575;-66
2022/09/23 11:36:14;;;;;;;2.70;0.90;;;;;;;17.61;35.70;98933.35;25035;1321;3053229;-63
2022/09/23 11:38:47;;;;;;;2.30;1.00;;;;;;;17.54;35.65;98934.11;25047;1321;3053857;-65
2022/09/23 11:41:30;;;;;;;1.90;0.90;;;;;;;17.44;35.44;98939.45;25018;1319;3069086;-67
2022/09/23 11:44:19;;;;;;;1.60;0.80;;;;;;;17.55;35.48;98931.84;25041;1321;3049099;-66
2022/09/23 11:47:10;;;;;;;2.50;1.00;;;;;;;17.32;35.38;98941.19;25005;1321;3053142;-66
2022/09/23 11:49:53;;;;;;;2.50;1.20;;;;;;;17.10;35.98;98934.73;25093;1321;3052146;-65
2022/09/23 11:53:10;;;;;;;2.40;1.10;;;;;;;17.32;35.77;98929.84;25022;1319;3056940;-66
2022/09/23 11:55:43;;;;;;;6.10;1.60;;;;;;;17.55;35.30;98933.10;25009;1321;3052345;-66